Menu Close Menu
Station Historical Data
Daily Summary for April 4, 2017 Units:  English    Metric   Both
« Previous Day
Next Day »
Daily Weekly Monthly Yearly Custom
  High: Low: Average:
Temperature: 81.1 °F 58.2 °F 68.7 °F
Dew Point: 58.8 °F 45.2 °F 54.5 °F
Humidity: 95% 31% 65%
Wind Speed: 1.0mph 0.0mph 0.1mph
Wind Gust: 6.0mph - -
Wind- - SSW
Pressure: 29.90 in 29.77 in -
Precipitation: 0.00 in    
Historical Graphs
 
 
Tabular Data for April 4, 2017
Time Temperature Dew Point Pressure Wind Wind Speed Wind Gust Humidity Rainfall Rate (Hourly) solar Conditions
00:00 60.5 °F 57.9 °F 29.77 in Calm   3.0 mph 91% 0.00 in 0.0 W/m2 SCT
00:15 60.6 °F 58.0 °F 29.77 in Calm   3.0 mph 91% 0.00 in 0.0 W/m2 SCT
00:30 60.5 °F 57.9 °F 29.77 in Calm   2.0 mph 91% 0.00 in 0.0 W/m2 SCT
00:45 60.4 °F 57.8 °F 29.77 in Calm   1.0 mph 91% 0.00 in 0.0 W/m2 SCT
01:00 60.5 °F 57.9 °F 29.77 in Calm   2.0 mph 91% 0.00 in 0.0 W/m2 SCT
01:15 60.5 °F 57.9 °F 29.77 in Calm   5.0 mph 91% 0.00 in 0.0 W/m2 SCT
01:30 60.7 °F 58.1 °F 29.78 in Calm   5.0 mph 91% 0.00 in 0.0 W/m2 SCT
01:45 60.8 °F 58.2 °F 29.78 in Calm   2.0 mph 91% 0.00 in 0.0 W/m2 SCT
02:00 60.8 °F 58.2 °F 29.78 in Calm   3.0 mph 91% 0.00 in 0.0 W/m2 SCT
02:15 60.9 °F 58.3 °F 29.78 in Calm   5.0 mph 91% 0.00 in 0.0 W/m2 SCT
02:30 61.1 °F 58.5 °F 29.79 in Calm   2.0 mph 91% 0.00 in 0.0 W/m2 SCT
02:45 61.3 °F 58.7 °F 29.79 in Calm   2.0 mph 91% 0.00 in 0.0 W/m2 SCT
03:00 61.3 °F 58.3 °F 29.79 in Calm   1.0 mph 90% 0.00 in 0.0 W/m2 SCT
03:15 60.9 °F 58.3 °F 29.80 in Calm   1.0 mph 91% 0.00 in 0.0 W/m2 SCT
03:30 60.9 °F 58.3 °F 29.80 in Calm   1.0 mph 91% 0.00 in 0.0 W/m2 SCT
03:45 61.0 °F 58.4 °F 29.80 in Calm   1.0 mph 91% 0.00 in 0.0 W/m2 SCT
04:00 60.7 °F 58.1 °F 29.80 in Calm   1.0 mph 91% 0.00 in 0.0 W/m2 SCT
04:15 60.5 °F 58.2 °F 29.81 in Calm     92% 0.00 in 0.0 W/m2 SCT
04:30 60.2 °F 58.8 °F 29.81 in Calm     95% 0.00 in 0.0 W/m2 SCT
04:45 60.2 °F 58.8 °F 29.81 in Calm     95% 0.00 in 0.0 W/m2 SCT
05:00 60.2 °F 58.8 °F 29.82 in Calm     95% 0.00 in 0.0 W/m2 SCT
05:15 60.2 °F 58.8 °F 29.82 in Calm     95% 0.00 in 0.0 W/m2 SCT
05:30 60.2 °F 58.8 °F 29.83 in Calm     95% 0.00 in 0.0 W/m2 SCT
05:45 60.2 °F 58.8 °F 29.83 in Calm     95% 0.00 in 0.0 W/m2 SCT
06:00 60.2 °F 58.8 °F 29.83 in Calm     95% 0.00 in 0.0 W/m2 SCT
06:15 60.2 °F 58.8 °F 29.83 in Calm     95% 0.00 in 0.0 W/m2 SCT
06:30 60.2 °F 58.8 °F 29.83 in Calm     95% 0.00 in 0.0 W/m2 SCT
06:45 60.2 °F 58.8 °F 29.84 in Calm     95% 0.00 in 0.0 W/m2 SCT
07:00 60.2 °F 58.8 °F 29.85 in Calm     95% 0.00 in 0.0 W/m2 SCT
07:15 60.2 °F 58.8 °F 29.85 in Calm     95% 0.00 in 0.0 W/m2 SCT
07:30 60.2 °F 58.8 °F 29.85 in Calm     95% 0.00 in 0.0 W/m2 SCT
07:45 60.2 °F 58.8 °F 29.86 in Calm     95% 0.00 in 0.0 W/m2 SCT
08:00 58.2 °F 55.9 °F 29.86 in Calm   1.0 mph 92% 0.00 in 0.0 W/m2 SCT
08:15 59.4 °F 57.1 °F 29.86 in Calm   1.0 mph 92% 0.00 in 0.0 W/m2 SCT
08:30 60.7 °F 57.4 °F 29.87 in Calm   1.0 mph 89% 0.00 in 0.0 W/m2 SCT
08:45 62.0 °F 57.4 °F 29.87 in Calm   1.0 mph 85% 0.00 in 0.0 W/m2 SCT
09:00 62.9 °F 57.3 °F 29.87 in Calm     82% 0.00 in 0.0 W/m2 SCT
09:15 63.8 °F 57.9 °F 29.87 in Calm   2.0 mph 81% 0.00 in 0.0 W/m2 SCT
09:30 64.7 °F 57.3 °F 29.88 in Calm   5.0 mph 77% 0.00 in 0.0 W/m2 SCT
09:45 65.8 °F 57.7 °F 29.88 in NNW 1.0 mph 3.0 mph 75% 0.00 in 0.0 W/m2 SCT
10:00 68.0 °F 57.4 °F 29.87 in Calm   5.0 mph 69% 0.00 in 0.0 W/m2 SCT
10:15 68.6 °F 58.0 °F 29.88 in Calm   3.0 mph 69% 0.00 in 0.0 W/m2 SCT
10:30 69.6 °F 57.3 °F 29.88 in West 1.0 mph 5.0 mph 65% 0.00 in 0.0 W/m2 SCT
11:00 72.3 °F 58.1 °F 29.89 in Calm   5.0 mph 61% 0.00 in 0.0 W/m2 SCT
11:15 73.1 °F 56.5 °F 29.90 in South 1.0 mph 4.0 mph 56% 0.00 in 0.0 W/m2 SCT
11:30 73.6 °F 57.4 °F 29.90 in Calm   2.0 mph 57% 0.00 in 0.0 W/m2 SCT
11:45 73.9 °F 57.2 °F 29.90 in Calm   5.0 mph 56% 0.00 in 0.0 W/m2 SCT
12:00 74.4 °F 55.6 °F 29.90 in SSE 1.0 mph 5.0 mph 52% 0.00 in 0.0 W/m2 SCT
12:15 75.0 °F 55.6 °F 29.90 in SW 1.0 mph 6.0 mph 51% 0.00 in 0.0 W/m2 SCT
12:30 75.8 °F 55.8 °F 29.90 in Calm   6.0 mph 50% 0.00 in 0.0 W/m2 SCT
12:45 76.4 °F 55.8 °F 29.90 in ENE 1.0 mph 6.0 mph 49% 0.00 in 0.0 W/m2 SCT
13:00 77.2 °F 54.8 °F 29.89 in SSW 1.0 mph 5.0 mph 46% 0.00 in 0.0 W/m2 SCT
13:15 78.6 °F 54.3 °F 29.90 in Calm   5.0 mph 43% 0.00 in 0.0 W/m2 SCT
13:30 79.5 °F 53.7 °F 29.90 in WNW 1.0 mph 5.0 mph 41% 0.00 in 0.0 W/m2 SCT
13:45 79.8 °F 54.0 °F 29.89 in ESE 1.0 mph 5.0 mph 41% 0.00 in 0.0 W/m2 SCT
14:00 80.3 °F 53.1 °F 29.88 in SE 1.0 mph 5.0 mph 39% 0.00 in 0.0 W/m2 SCT
14:15 81.1 °F 53.1 °F 29.87 in Calm   3.0 mph 38% 0.00 in 0.0 W/m2 SCT
14:30 80.9 °F 55.0 °F 29.86 in West 1.0 mph 2.0 mph 41% 0.00 in 0.0 W/m2 SCT
14:45 79.7 °F 52.5 °F 29.85 in Calm   5.0 mph 39% 0.00 in 0.0 W/m2 SCT
15:00 79.9 °F 52.7 °F 29.85 in Calm   2.0 mph 39% 0.00 in 0.0 W/m2 SCT
15:15 80.3 °F 51.7 °F 29.84 in NNW 1.0 mph 3.0 mph 37% 0.00 in 0.0 W/m2 SCT
15:30 79.6 °F 51.0 °F 29.84 in Calm   2.0 mph 37% 0.00 in 0.0 W/m2 SCT
15:45 79.6 °F 50.3 °F 29.84 in Calm   3.0 mph 36% 0.00 in 0.0 W/m2 SCT
16:00 79.9 °F 49.8 °F 29.83 in Calm   5.0 mph 35% 0.00 in 0.0 W/m2 SCT
16:15 80.3 °F 50.1 °F 29.83 in Calm   2.0 mph 35% 0.00 in 0.0 W/m2 SCT
16:30 80.1 °F 49.2 °F 29.82 in Calm   5.0 mph 34% 0.00 in 0.0 W/m2 SCT
16:45 80.0 °F 51.4 °F 29.82 in Calm   5.0 mph 37% 0.00 in 0.0 W/m2 SCT
17:00 79.7 °F 51.1 °F 29.82 in Calm   3.0 mph 37% 0.00 in 0.0 W/m2 SCT
17:15 79.9 °F 49.8 °F 29.82 in Calm   2.0 mph 35% 0.00 in 0.0 W/m2 SCT
17:30 79.9 °F 49.0 °F 29.82 in North 1.0 mph 5.0 mph 34% 0.00 in 0.0 W/m2 SCT
17:45 79.6 °F 47.2 °F 29.82 in Calm   2.0 mph 32% 0.00 in 0.0 W/m2 SCT
18:00 79.1 °F 47.5 °F 29.82 in Calm   2.0 mph 33% 0.00 in 0.0 W/m2 SCT
18:15 78.7 °F 47.2 °F 29.82 in Calm   2.0 mph 33% 0.00 in 0.0 W/m2 SCT
18:30 78.3 °F 45.2 °F 29.82 in Calm   3.0 mph 31% 0.00 in 0.0 W/m2 SCT
18:45 77.8 °F 47.2 °F 29.82 in Calm   1.0 mph 34% 0.00 in 0.0 W/m2 SCT
19:00 76.6 °F 47.7 °F 29.83 in Calm     36% 0.00 in 0.0 W/m2 SCT
19:15 75.7 °F 47.6 °F 29.83 in Calm     37% 0.00 in 0.0 W/m2 SCT
19:30 74.9 °F 48.3 °F 29.83 in Calm     39% 0.00 in 0.0 W/m2 SCT
19:45 74.2 °F 49.6 °F 29.83 in Calm     42% 0.00 in 0.0 W/m2 SCT
20:00 73.0 °F 49.8 °F 29.84 in Calm     44% 0.00 in 0.0 W/m2 SCT
20:15 72.2 °F 49.7 °F 29.84 in Calm     45% 0.00 in 0.0 W/m2 SCT
20:30 71.2 °F 49.4 °F 29.85 in Calm     46% 0.00 in 0.0 W/m2 SCT
20:45 70.2 °F 49.0 °F 29.85 in Calm     47% 0.00 in 0.0 W/m2 SCT
21:00 69.3 °F 50.9 °F 29.85 in Calm     52% 0.00 in 0.0 W/m2 SCT
21:15 68.7 °F 50.8 °F 29.87 in Calm     53% 0.00 in 0.0 W/m2 SCT
21:30 67.9 °F 49.6 °F 29.87 in Calm     52% 0.00 in 0.0 W/m2 SCT
21:45 66.9 °F 51.6 °F 29.88 in Calm   2.0 mph 58% 0.00 in 0.0 W/m2 SCT
22:00 66.5 °F 51.3 °F 29.88 in Calm     58% 0.00 in 0.0 W/m2 SCT
22:15 65.8 °F 50.6 °F 29.88 in Calm     58% 0.00 in 0.0 W/m2 SCT
22:30 65.4 °F 51.1 °F 29.88 in Calm   1.0 mph 60% 0.00 in 0.0 W/m2 SCT
22:45 65.1 °F 50.4 °F 29.88 in Calm     59% 0.00 in 0.0 W/m2 SCT
23:00 64.9 °F 51.1 °F 29.88 in Calm     61% 0.00 in 0.0 W/m2 SCT
23:15 64.5 °F 50.7 °F 29.88 in Calm     61% 0.00 in 0.0 W/m2 SCT
23:30 64.0 °F 51.6 °F 29.88 in Calm     64% 0.00 in 0.0 W/m2 SCT
23:45 63.8 °F 51.8 °F 29.88 in Calm     65% 0.00 in 0.0 W/m2 SCT
Piedmont Bend
Compliments of Weather Underground - 4 mb